Terminal Aerodrome Forecast
Issued by NWS

Home | Current Version | Previous Version | Graphics & Text | Print | Product List | Glossary On
Versions: 1 2 3 4 5 6 7 8 9 10 11 12 13 14 15 16 17
000
FTUS43 KBIS 141100
TAFMOT
TAF
KMOT 141131Z 1412/1512 33010KT P6SM SCT015 OVC035
     FM141500 36008KT P6SM SCT025 BKN035
     FM141800 33012KT P6SM SCT035 BKN050
     FM142300 30009KT P6SM SCT050
     FM150300 13005KT P6SM SKC=

USA.gov is the U.S. government's official web portal to all federal, state and local government web resources and services.